New Park, Pennsylvania
Current Conditions -  °F | °C
As of 10:53 AM on Tuesday 21 Oct 2014 (Local Time) from KTHV Reporting Station
Broken Clouds Broken Clouds  
Wind Chill: 58°   Ceiling: 11000
Heat Index: 58°   Visibility: 10mi
Dew Point: 51°   Wind: 5mph
Humidity: 78%   Direction: 280°W
Pressure: 29.87"   Gusts: NA
Location:  39.73°N, 76.51°W
Report Text: KTHV 211453Z AUTO 28004KT 10SM SCT043 BKN110 14/11 A2987 RMK AO2 SLP116 T01440106 50001
Loading
Personal Weather Stations






























Interactive Weather Map
Tropical Storm Tracking
New forecast layout! Learn more

10-Day Weather Forecast

Advertisements
Track Severe Weather on mobile